Maza, North Dakota
Current Conditions -  °F | °C
As of 12:15 PM on Monday 26 Jan 2015 (Local Time) from K9D7 Reporting Station
Clear Clear  
Wind Chill: 30°   Ceiling: Unl
Heat Index: 39°   Visibility: 10mi
Dew Point: 32°   Wind: 17mph
Humidity: 75%   Direction: 330°NNW
Pressure: 29.89"   Gusts: 21mph
Location:  48.4575°N, 99.1015°W
Report Text: K9D7 261815Z AUTO 33015G18KT 10SM CLR 04/00 A2989 RMK AO2
Loading
Personal Weather Stations






























Interactive Weather Map New forecast layout! Learn more

10-Day Weather Forecast

Advertisements
Track Severe Weather on mobile